sensor_id;sensor_type;location;lat;lon;timestamp;P1;durP1;ratioP1;P2;durP2;ratioP2
41739;SDS011;27422;52.444;13.300;2023-06-19T00:00:09;8.30;;;7.38;;
41739;SDS011;27422;52.444;13.300;2023-06-19T00:02:40;8.10;;;7.00;;
41739;SDS011;27422;52.444;13.300;2023-06-19T00:05:06;9.98;;;7.35;;
41739;SDS011;27422;52.444;13.300;2023-06-19T00:07:32;8.13;;;7.32;;
41739;SDS011;27422;52.444;13.300;2023-06-19T00:09:58;9.80;;;7.53;;
41739;SDS011;27422;52.444;13.300;2023-06-19T00:12:24;9.32;;;7.25;;
41739;SDS011;27422;52.444;13.300;2023-06-19T00:14:49;8.90;;;6.72;;
41739;SDS011;27422;52.444;13.300;2023-06-19T00:17:15;8.70;;;6.97;;
41739;SDS011;27422;52.444;13.300;2023-06-19T00:19:41;8.98;;;7.05;;
41739;SDS011;27422;52.444;13.300;2023-06-19T00:22:07;8.55;;;7.47;;
41739;SDS011;27422;52.444;13.300;2023-06-19T00:24:33;8.43;;;7.00;;
41739;SDS011;27422;52.444;13.300;2023-06-19T00:26:58;7.75;;;6.80;;
41739;SDS011;27422;52.444;13.300;2023-06-19T00:29:31;9.07;;;7.13;;
41739;SDS011;27422;52.444;13.300;2023-06-19T00:31:56;8.32;;;7.07;;
41739;SDS011;27422;52.444;13.300;2023-06-19T00:34:22;8.35;;;7.32;;
41739;SDS011;27422;52.444;13.300;2023-06-19T00:36:51;9.43;;;7.50;;
41739;SDS011;27422;52.444;13.300;2023-06-19T00:39:21;8.77;;;7.70;;
41739;SDS011;27422;52.444;13.300;2023-06-19T00:41:47;9.27;;;7.50;;
41739;SDS011;27422;52.444;13.300;2023-06-19T00:44:13;8.68;;;7.68;;
41739;SDS011;27422;52.444;13.300;2023-06-19T00:46:40;9.63;;;7.78;;
41739;SDS011;27422;52.444;13.300;2023-06-19T00:49:06;11.18;;;7.70;;
41739;SDS011;27422;52.444;13.300;2023-06-19T00:51:32;8.05;;;7.10;;
41739;SDS011;27422;52.444;13.300;2023-06-19T00:53:57;9.60;;;8.00;;
41739;SDS011;27422;52.444;13.300;2023-06-19T00:56:43;8.30;;;7.40;;
41739;SDS011;27422;52.444;13.300;2023-06-19T00:59:16;8.40;;;6.97;;
41739;SDS011;27422;52.444;13.300;2023-06-19T01:01:50;9.10;;;7.00;;
41739;SDS011;27422;52.444;13.300;2023-06-19T01:04:19;8.30;;;7.30;;
41739;SDS011;27422;52.444;13.300;2023-06-19T01:06:50;10.23;;;7.45;;
41739;SDS011;27422;52.444;13.300;2023-06-19T01:09:23;8.00;;;6.95;;
41739;SDS011;27422;52.444;13.300;2023-06-19T01:11:57;9.23;;;7.82;;
41739;SDS011;27422;52.444;13.300;2023-06-19T01:14:42;8.93;;;7.70;;
41739;SDS011;27422;52.444;13.300;2023-06-19T01:17:12;9.43;;;7.70;;
41739;SDS011;27422;52.444;13.300;2023-06-19T01:19:38;10.50;;;7.85;;
41739;SDS011;27422;52.444;13.300;2023-06-19T01:22:04;9.75;;;7.68;;
41739;SDS011;27422;52.444;13.300;2023-06-19T01:24:30;10.63;;;8.25;;
41739;SDS011;27422;52.444;13.300;2023-06-19T01:26:55;9.50;;;8.00;;
41739;SDS011;27422;52.444;13.300;2023-06-19T01:29:21;9.30;;;8.10;;
41739;SDS011;27422;52.444;13.300;2023-06-19T01:31:52;9.80;;;8.32;;
41739;SDS011;27422;52.444;13.300;2023-06-19T01:34:22;8.73;;;7.55;;
41739;SDS011;27422;52.444;13.300;2023-06-19T01:36:49;9.43;;;8.43;;
41739;SDS011;27422;52.444;13.300;2023-06-19T01:39:15;8.65;;;7.75;;
41739;SDS011;27422;52.444;13.300;2023-06-19T01:41:42;9.80;;;8.40;;
41739;SDS011;27422;52.444;13.300;2023-06-19T01:44:08;9.35;;;8.00;;
41739;SDS011;27422;52.444;13.300;2023-06-19T01:46:34;9.18;;;8.18;;
41739;SDS011;27422;52.444;13.300;2023-06-19T01:48:59;9.30;;;8.27;;
41739;SDS011;27422;52.444;13.300;2023-06-19T01:51:25;9.50;;;7.97;;
41739;SDS011;27422;52.444;13.300;2023-06-19T01:53:50;9.80;;;8.52;;
41739;SDS011;27422;52.444;13.300;2023-06-19T01:56:15;9.90;;;8.70;;
41739;SDS011;27422;52.444;13.300;2023-06-19T01:58:44;9.32;;;8.32;;
41739;SDS011;27422;52.444;13.300;2023-06-19T02:01:15;9.65;;;8.52;;
41739;SDS011;27422;52.444;13.300;2023-06-19T02:03:41;9.88;;;8.32;;
41739;SDS011;27422;52.444;13.300;2023-06-19T02:06:06;9.93;;;7.82;;
41739;SDS011;27422;52.444;13.300;2023-06-19T02:08:32;10.52;;;8.85;;
41739;SDS011;27422;52.444;13.300;2023-06-19T02:10:57;11.13;;;8.77;;
41739;SDS011;27422;52.444;13.300;2023-06-19T02:13:23;10.43;;;8.50;;
41739;SDS011;27422;52.444;13.300;2023-06-19T02:15:53;9.32;;;8.30;;
41739;SDS011;27422;52.444;13.300;2023-06-19T02:18:26;11.10;;;8.52;;
41739;SDS011;27422;52.444;13.300;2023-06-19T02:20:51;10.30;;;9.05;;
41739;SDS011;27422;52.444;13.300;2023-06-19T02:23:17;10.15;;;8.43;;
41739;SDS011;27422;52.444;13.300;2023-06-19T02:25:43;9.98;;;8.45;;
41739;SDS011;27422;52.444;13.300;2023-06-19T02:30:36;10.40;;;9.30;;
41739;SDS011;27422;52.444;13.300;2023-06-19T02:33:01;10.52;;;8.75;;
41739;SDS011;27422;52.444;13.300;2023-06-19T02:35:27;11.20;;;9.38;;
41739;SDS011;27422;52.444;13.300;2023-06-19T02:37:52;10.68;;;8.73;;
41739;SDS011;27422;52.444;13.300;2023-06-19T02:40:17;10.93;;;9.02;;
41739;SDS011;27422;52.444;13.300;2023-06-19T02:42:43;11.85;;;9.00;;
41739;SDS011;27422;52.444;13.300;2023-06-19T02:45:08;11.18;;;9.55;;
41739;SDS011;27422;52.444;13.300;2023-06-19T02:47:34;11.27;;;9.48;;
41739;SDS011;27422;52.444;13.300;2023-06-19T02:50:00;10.48;;;8.93;;
41739;SDS011;27422;52.444;13.300;2023-06-19T02:52:27;10.90;;;9.27;;
41739;SDS011;27422;52.444;13.300;2023-06-19T02:54:53;11.48;;;9.73;;
41739;SDS011;27422;52.444;13.300;2023-06-19T02:57:19;10.38;;;9.27;;
41739;SDS011;27422;52.444;13.300;2023-06-19T02:59:44;10.88;;;9.50;;
41739;SDS011;27422;52.444;13.300;2023-06-19T03:02:10;11.38;;;9.93;;
41739;SDS011;27422;52.444;13.300;2023-06-19T03:04:36;11.38;;;10.18;;
41739;SDS011;27422;52.444;13.300;2023-06-19T03:07:02;11.25;;;9.68;;
41739;SDS011;27422;52.444;13.300;2023-06-19T03:09:28;11.82;;;9.98;;
41739;SDS011;27422;52.444;13.300;2023-06-19T03:11:53;10.73;;;9.63;;
41739;SDS011;27422;52.444;13.300;2023-06-19T03:14:19;12.30;;;9.63;;
41739;SDS011;27422;52.444;13.300;2023-06-19T03:16:45;12.45;;;10.20;;
41739;SDS011;27422;52.444;13.300;2023-06-19T03:19:10;12.13;;;10.40;;
41739;SDS011;27422;52.444;13.300;2023-06-19T03:21:35;11.05;;;9.48;;
41739;SDS011;27422;52.444;13.300;2023-06-19T03:24:01;10.60;;;9.50;;
41739;SDS011;27422;52.444;13.300;2023-06-19T03:26:26;11.07;;;9.85;;
41739;SDS011;27422;52.444;13.300;2023-06-19T03:28:52;10.98;;;9.60;;
41739;SDS011;27422;52.444;13.300;2023-06-19T03:31:18;11.13;;;9.93;;
41739;SDS011;27422;52.444;13.300;2023-06-19T03:33:43;10.45;;;9.35;;
41739;SDS011;27422;52.444;13.300;2023-06-19T03:36:09;12.55;;;9.80;;
41739;SDS011;27422;52.444;13.300;2023-06-19T03:38:37;11.05;;;9.82;;
41739;SDS011;27422;52.444;13.300;2023-06-19T03:41:02;10.80;;;9.68;;
41739;SDS011;27422;52.444;13.300;2023-06-19T03:43:27;11.60;;;9.75;;
41739;SDS011;27422;52.444;13.300;2023-06-19T03:45:53;10.65;;;9.55;;
41739;SDS011;27422;52.444;13.300;2023-06-19T03:48:18;11.25;;;9.40;;
41739;SDS011;27422;52.444;13.300;2023-06-19T03:50:44;10.55;;;9.23;;
41739;SDS011;27422;52.444;13.300;2023-06-19T03:53:09;11.23;;;9.57;;
41739;SDS011;27422;52.444;13.300;2023-06-19T03:55:43;11.25;;;9.50;;
41739;SDS011;27422;52.444;13.300;2023-06-19T03:58:09;12.02;;;10.00;;
41739;SDS011;27422;52.444;13.300;2023-06-19T04:00:47;11.32;;;10.13;;
41739;SDS011;27422;52.444;13.300;2023-06-19T04:03:13;11.23;;;9.10;;
41739;SDS011;27422;52.444;13.300;2023-06-19T04:05:38;10.02;;;8.80;;
41739;SDS011;27422;52.444;13.300;2023-06-19T04:08:06;11.05;;;9.23;;
41739;SDS011;27422;52.444;13.300;2023-06-19T04:10:32;10.68;;;9.57;;
41739;SDS011;27422;52.444;13.300;2023-06-19T04:12:57;11.88;;;10.52;;
41739;SDS011;27422;52.444;13.300;2023-06-19T04:15:23;11.75;;;10.02;;
41739;SDS011;27422;52.444;13.300;2023-06-19T04:17:48;10.82;;;9.50;;
41739;SDS011;27422;52.444;13.300;2023-06-19T04:20:17;11.45;;;9.13;;
41739;SDS011;27422;52.444;13.300;2023-06-19T04:22:50;12.23;;;9.55;;
41739;SDS011;27422;52.444;13.300;2023-06-19T04:25:15;10.50;;;9.40;;
41739;SDS011;27422;52.444;13.300;2023-06-19T04:27:40;10.23;;;9.13;;
41739;SDS011;27422;52.444;13.300;2023-06-19T04:30:06;10.65;;;9.35;;
41739;SDS011;27422;52.444;13.300;2023-06-19T04:32:40;13.65;;;9.88;;
41739;SDS011;27422;52.444;13.300;2023-06-19T04:35:06;11.95;;;9.50;;
41739;SDS011;27422;52.444;13.300;2023-06-19T04:37:38;12.55;;;10.88;;
41739;SDS011;27422;52.444;13.300;2023-06-19T04:40:03;11.75;;;9.43;;
41739;SDS011;27422;52.444;13.300;2023-06-19T04:42:30;11.25;;;10.02;;
41739;SDS011;27422;52.444;13.300;2023-06-19T04:44:56;12.45;;;10.02;;
41739;SDS011;27422;52.444;13.300;2023-06-19T04:47:24;10.50;;;9.40;;
41739;SDS011;27422;52.444;13.300;2023-06-19T04:49:50;11.35;;;9.55;;
41739;SDS011;27422;52.444;13.300;2023-06-19T04:52:35;10.57;;;9.48;;
41739;SDS011;27422;52.444;13.300;2023-06-19T04:55:01;10.88;;;9.38;;
41739;SDS011;27422;52.444;13.300;2023-06-19T04:57:26;10.77;;;9.48;;
41739;SDS011;27422;52.444;13.300;2023-06-19T04:59:51;13.00;;;10.25;;
41739;SDS011;27422;52.444;13.300;2023-06-19T05:02:20;10.95;;;9.60;;
41739;SDS011;27422;52.444;13.300;2023-06-19T05:04:45;12.48;;;10.15;;
41739;SDS011;27422;52.444;13.300;2023-06-19T05:07:11;11.45;;;10.20;;
41739;SDS011;27422;52.444;13.300;2023-06-19T05:09:37;10.87;;;9.50;;
41739;SDS011;27422;52.444;13.300;2023-06-19T05:12:03;11.15;;;9.98;;
41739;SDS011;27422;52.444;13.300;2023-06-19T05:14:29;11.30;;;10.10;;
41739;SDS011;27422;52.444;13.300;2023-06-19T05:16:54;12.43;;;10.45;;
41739;SDS011;27422;52.444;13.300;2023-06-19T05:19:19;11.98;;;9.98;;
41739;SDS011;27422;52.444;13.300;2023-06-19T05:21:45;12.13;;;10.13;;
41739;SDS011;27422;52.444;13.300;2023-06-19T05:24:13;12.40;;;10.15;;
41739;SDS011;27422;52.444;13.300;2023-06-19T05:26:39;11.75;;;10.13;;
41739;SDS011;27422;52.444;13.300;2023-06-19T05:29:04;10.88;;;9.57;;
41739;SDS011;27422;52.444;13.300;2023-06-19T05:31:33;10.52;;;9.43;;
41739;SDS011;27422;52.444;13.300;2023-06-19T05:33:58;11.13;;;9.45;;
41739;SDS011;27422;52.444;13.300;2023-06-19T05:36:24;10.90;;;9.43;;
41739;SDS011;27422;52.444;13.300;2023-06-19T05:38:49;12.68;;;10.02;;
41739;SDS011;27422;52.444;13.300;2023-06-19T05:41:15;11.48;;;10.27;;
41739;SDS011;27422;52.444;13.300;2023-06-19T05:43:41;11.35;;;9.60;;
41739;SDS011;27422;52.444;13.300;2023-06-19T05:46:06;10.65;;;9.30;;
41739;SDS011;27422;52.444;13.300;2023-06-19T05:48:34;12.05;;;10.05;;
41739;SDS011;27422;52.444;13.300;2023-06-19T05:51:03;12.60;;;9.93;;
41739;SDS011;27422;52.444;13.300;2023-06-19T05:53:28;11.93;;;9.93;;
41739;SDS011;27422;52.444;13.300;2023-06-19T05:55:56;12.75;;;10.05;;
41739;SDS011;27422;52.444;13.300;2023-06-19T05:58:21;11.90;;;10.35;;
41739;SDS011;27422;52.444;13.300;2023-06-19T06:00:46;11.07;;;9.80;;
41739;SDS011;27422;52.444;13.300;2023-06-19T06:03:12;10.70;;;9.60;;
41739;SDS011;27422;52.444;13.300;2023-06-19T06:05:43;11.13;;;9.60;;
41739;SDS011;27422;52.444;13.300;2023-06-19T06:08:15;10.10;;;8.90;;
41739;SDS011;27422;52.444;13.300;2023-06-19T06:10:43;10.27;;;9.20;;
41739;SDS011;27422;52.444;13.300;2023-06-19T06:13:08;11.85;;;9.52;;
41739;SDS011;27422;52.444;13.300;2023-06-19T06:15:34;10.32;;;8.68;;
41739;SDS011;27422;52.444;13.300;2023-06-19T06:17:59;12.20;;;9.82;;
41739;SDS011;27422;52.444;13.300;2023-06-19T06:20:25;11.15;;;9.40;;
41739;SDS011;27422;52.444;13.300;2023-06-19T06:22:51;10.98;;;9.60;;
41739;SDS011;27422;52.444;13.300;2023-06-19T06:25:16;13.95;;;10.05;;
41739;SDS011;27422;52.444;13.300;2023-06-19T06:27:41;11.13;;;9.88;;
41739;SDS011;27422;52.444;13.300;2023-06-19T06:30:07;11.65;;;9.93;;
41739;SDS011;27422;52.444;13.300;2023-06-19T06:32:33;10.90;;;9.32;;
41739;SDS011;27422;52.444;13.300;2023-06-19T06:34:59;11.95;;;9.63;;
41739;SDS011;27422;52.444;13.300;2023-06-19T06:37:24;11.18;;;9.60;;
41739;SDS011;27422;52.444;13.300;2023-06-19T06:39:50;12.55;;;10.10;;
41739;SDS011;27422;52.444;13.300;2023-06-19T06:42:16;12.10;;;9.48;;
41739;SDS011;27422;52.444;13.300;2023-06-19T06:44:42;12.50;;;10.23;;
41739;SDS011;27422;52.444;13.300;2023-06-19T06:47:07;11.32;;;9.80;;
41739;SDS011;27422;52.444;13.300;2023-06-19T06:49:33;11.15;;;9.82;;
41739;SDS011;27422;52.444;13.300;2023-06-19T06:51:58;11.50;;;9.80;;
41739;SDS011;27422;52.444;13.300;2023-06-19T06:54:26;11.77;;;9.98;;
41739;SDS011;27422;52.444;13.300;2023-06-19T06:56:51;11.73;;;9.30;;
41739;SDS011;27422;52.444;13.300;2023-06-19T06:59:21;14.13;;;10.18;;
41739;SDS011;27422;52.444;13.300;2023-06-19T07:01:46;10.38;;;8.93;;
41739;SDS011;27422;52.444;13.300;2023-06-19T07:04:11;11.60;;;9.60;;
41739;SDS011;27422;52.444;13.300;2023-06-19T07:06:37;11.05;;;9.52;;
41739;SDS011;27422;52.444;13.300;2023-06-19T07:09:03;13.20;;;10.00;;
41739;SDS011;27422;52.444;13.300;2023-06-19T07:11:28;12.10;;;9.57;;
41739;SDS011;27422;52.444;13.300;2023-06-19T07:13:54;11.60;;;10.20;;
41739;SDS011;27422;52.444;13.300;2023-06-19T07:16:19;10.90;;;9.80;;
41739;SDS011;27422;52.444;13.300;2023-06-19T07:18:47;11.50;;;9.07;;
41739;SDS011;27422;52.444;13.300;2023-06-19T07:23:39;12.48;;;9.68;;
41739;SDS011;27422;52.444;13.300;2023-06-19T07:26:05;11.13;;;9.38;;
41739;SDS011;27422;52.444;13.300;2023-06-19T07:28:30;13.55;;;9.82;;
41739;SDS011;27422;52.444;13.300;2023-06-19T07:30:56;10.43;;;9.20;;
41739;SDS011;27422;52.444;13.300;2023-06-19T07:33:21;9.70;;;8.70;;
41739;SDS011;27422;52.444;13.300;2023-06-19T07:35:46;11.07;;;9.02;;
41739;SDS011;27422;52.444;13.300;2023-06-19T07:38:12;9.95;;;8.38;;
41739;SDS011;27422;52.444;13.300;2023-06-19T07:40:37;11.10;;;8.55;;
41739;SDS011;27422;52.444;13.300;2023-06-19T07:43:03;11.55;;;9.38;;
41739;SDS011;27422;52.444;13.300;2023-06-19T07:45:29;12.57;;;8.77;;
41739;SDS011;27422;52.444;13.300;2023-06-19T07:47:55;13.18;;;8.50;;
41739;SDS011;27422;52.444;13.300;2023-06-19T07:50:21;8.43;;;7.53;;
41739;SDS011;27422;52.444;13.300;2023-06-19T07:52:47;12.23;;;8.25;;
41739;SDS011;27422;52.444;13.300;2023-06-19T07:55:13;8.40;;;7.43;;
41739;SDS011;27422;52.444;13.300;2023-06-19T07:57:38;9.02;;;7.55;;
41739;SDS011;27422;52.444;13.300;2023-06-19T08:00:13;10.25;;;7.80;;
41739;SDS011;27422;52.444;13.300;2023-06-19T08:02:40;11.63;;;7.75;;
41739;SDS011;27422;52.444;13.300;2023-06-19T08:05:06;8.98;;;7.50;;
41739;SDS011;27422;52.444;13.300;2023-06-19T08:07:33;9.50;;;7.68;;
41739;SDS011;27422;52.444;13.300;2023-06-19T08:09:58;9.52;;;8.05;;
41739;SDS011;27422;52.444;13.300;2023-06-19T08:12:24;9.52;;;7.30;;
41739;SDS011;27422;52.444;13.300;2023-06-19T08:14:49;8.70;;;7.28;;
41739;SDS011;27422;52.444;13.300;2023-06-19T08:17:15;10.15;;;7.40;;
41739;SDS011;27422;52.444;13.300;2023-06-19T08:19:40;8.40;;;7.30;;
41739;SDS011;27422;52.444;13.300;2023-06-19T08:22:09;8.55;;;6.65;;
41739;SDS011;27422;52.444;13.300;2023-06-19T08:24:35;8.88;;;7.15;;
41739;SDS011;27422;52.444;13.300;2023-06-19T08:27:05;7.10;;;6.30;;
41739;SDS011;27422;52.444;13.300;2023-06-19T08:29:30;8.40;;;6.80;;
41739;SDS011;27422;52.444;13.300;2023-06-19T08:31:58;7.65;;;6.82;;
41739;SDS011;27422;52.444;13.300;2023-06-19T08:34:44;8.02;;;6.63;;
41739;SDS011;27422;52.444;13.300;2023-06-19T08:37:11;11.50;;;7.05;;
41739;SDS011;27422;52.444;13.300;2023-06-19T08:39:36;9.60;;;7.20;;
41739;SDS011;27422;52.444;13.300;2023-06-19T08:42:09;9.27;;;7.45;;
41739;SDS011;27422;52.444;13.300;2023-06-19T08:44:35;9.45;;;8.38;;
41739;SDS011;27422;52.444;13.300;2023-06-19T08:47:03;9.35;;;7.80;;
41739;SDS011;27422;52.444;13.300;2023-06-19T08:49:30;8.18;;;7.25;;
41739;SDS011;27422;52.444;13.300;2023-06-19T08:51:56;8.07;;;7.20;;
41739;SDS011;27422;52.444;13.300;2023-06-19T08:54:22;10.82;;;8.20;;
41739;SDS011;27422;52.444;13.300;2023-06-19T08:56:47;8.43;;;7.53;;
41739;SDS011;27422;52.444;13.300;2023-06-19T08:59:16;9.27;;;7.32;;
41739;SDS011;27422;52.444;13.300;2023-06-19T09:01:48;9.52;;;8.10;;
41739;SDS011;27422;52.444;13.300;2023-06-19T09:04:19;8.63;;;7.07;;
41739;SDS011;27422;52.444;13.300;2023-06-19T09:06:49;10.02;;;7.93;;
41739;SDS011;27422;52.444;13.300;2023-06-19T09:09:21;9.55;;;7.55;;
41739;SDS011;27422;52.444;13.300;2023-06-19T09:12:00;8.82;;;7.45;;
41739;SDS011;27422;52.444;13.300;2023-06-19T09:14:39;9.68;;;7.88;;
41739;SDS011;27422;52.444;13.300;2023-06-19T09:17:06;10.55;;;7.90;;
41739;SDS011;27422;52.444;13.300;2023-06-19T09:19:35;8.93;;;7.43;;
41739;SDS011;27422;52.444;13.300;2023-06-19T09:22:04;9.40;;;7.93;;
41739;SDS011;27422;52.444;13.300;2023-06-19T09:24:40;9.45;;;7.85;;
41739;SDS011;27422;52.444;13.300;2023-06-19T09:29:42;9.00;;;7.57;;
41739;SDS011;27422;52.444;13.300;2023-06-19T09:34:49;9.57;;;7.55;;
41739;SDS011;27422;52.444;13.300;2023-06-19T09:37:16;9.50;;;8.02;;
41739;SDS011;27422;52.444;13.300;2023-06-19T09:39:47;10.82;;;8.63;;
41739;SDS011;27422;52.444;13.300;2023-06-19T09:42:17;9.82;;;7.85;;
41739;SDS011;27422;52.444;13.300;2023-06-19T09:47:18;10.00;;;8.32;;
41739;SDS011;27422;52.444;13.300;2023-06-19T09:49:48;9.82;;;8.57;;
41739;SDS011;27422;52.444;13.300;2023-06-19T09:52:15;10.10;;;8.98;;
41739;SDS011;27422;52.444;13.300;2023-06-19T09:54:42;11.43;;;8.70;;
41739;SDS011;27422;52.444;13.300;2023-06-19T09:57:09;14.60;;;9.13;;
41739;SDS011;27422;52.444;13.300;2023-06-19T09:59:35;9.70;;;8.70;;
41739;SDS011;27422;52.444;13.300;2023-06-19T10:04:30;11.45;;;9.55;;
41739;SDS011;27422;52.444;13.300;2023-06-19T10:06:55;10.25;;;9.15;;
41739;SDS011;27422;52.444;13.300;2023-06-19T10:09:22;10.35;;;9.10;;
41739;SDS011;27422;52.444;13.300;2023-06-19T10:11:48;9.63;;;8.32;;
41739;SDS011;27422;52.444;13.300;2023-06-19T10:14:18;9.52;;;8.52;;
41739;SDS011;27422;52.444;13.300;2023-06-19T10:16:47;11.05;;;9.05;;
41739;SDS011;27422;52.444;13.300;2023-06-19T10:19:13;9.63;;;8.63;;
41739;SDS011;27422;52.444;13.300;2023-06-19T10:21:46;10.02;;;8.48;;
41739;SDS011;27422;52.444;13.300;2023-06-19T10:24:22;10.60;;;9.18;;
41739;SDS011;27422;52.444;13.300;2023-06-19T10:26:55;11.98;;;9.02;;
41739;SDS011;27422;52.444;13.300;2023-06-19T10:29:24;10.00;;;9.00;;
41739;SDS011;27422;52.444;13.300;2023-06-19T10:31:50;10.37;;;9.07;;
41739;SDS011;27422;52.444;13.300;2023-06-19T10:34:16;10.77;;;8.40;;
41739;SDS011;27422;52.444;13.300;2023-06-19T10:36:41;9.50;;;8.50;;
41739;SDS011;27422;52.444;13.300;2023-06-19T10:39:09;10.35;;;8.38;;
41739;SDS011;27422;52.444;13.300;2023-06-19T10:41:40;8.60;;;7.70;;
41739;SDS011;27422;52.444;13.300;2023-06-19T10:44:06;9.07;;;8.15;;
41739;SDS011;27422;52.444;13.300;2023-06-19T10:46:38;17.13;;;8.70;;
41739;SDS011;27422;52.444;13.300;2023-06-19T10:49:12;9.85;;;7.78;;
41739;SDS011;27422;52.444;13.300;2023-06-19T10:51:39;10.40;;;8.13;;
41739;SDS011;27422;52.444;13.300;2023-06-19T10:54:05;9.57;;;7.60;;
41739;SDS011;27422;52.444;13.300;2023-06-19T10:56:32;9.60;;;8.20;;
41739;SDS011;27422;52.444;13.300;2023-06-19T11:01:30;9.43;;;7.38;;
41739;SDS011;27422;52.444;13.300;2023-06-19T11:04:03;8.57;;;7.68;;
41739;SDS011;27422;52.444;13.300;2023-06-19T11:06:32;11.80;;;7.57;;
41739;SDS011;27422;52.444;13.300;2023-06-19T11:08:59;11.90;;;7.72;;
41739;SDS011;27422;52.444;13.300;2023-06-19T11:11:35;10.50;;;7.90;;
41739;SDS011;27422;52.444;13.300;2023-06-19T11:14:06;8.77;;;7.63;;
41739;SDS011;27422;52.444;13.300;2023-06-19T11:16:41;9.32;;;7.50;;
41739;SDS011;27422;52.444;13.300;2023-06-19T11:19:08;9.40;;;7.93;;
41739;SDS011;27422;52.444;13.300;2023-06-19T11:21:36;13.13;;;8.10;;
41739;SDS011;27422;52.444;13.300;2023-06-19T11:24:05;10.27;;;7.25;;
41739;SDS011;27422;52.444;13.300;2023-06-19T11:26:40;8.65;;;7.50;;
41739;SDS011;27422;52.444;13.300;2023-06-19T11:31:50;9.05;;;7.32;;
41739;SDS011;27422;52.444;13.300;2023-06-19T11:34:30;14.52;;;8.25;;
41739;SDS011;27422;52.444;13.300;2023-06-19T11:39:21;8.02;;;7.07;;
41739;SDS011;27422;52.444;13.300;2023-06-19T11:41:47;9.77;;;7.40;;
41739;SDS011;27422;52.444;13.300;2023-06-19T11:44:12;8.38;;;7.07;;
41739;SDS011;27422;52.444;13.300;2023-06-19T11:46:38;8.30;;;7.38;;
41739;SDS011;27422;52.444;13.300;2023-06-19T11:49:13;8.63;;;7.13;;
41739;SDS011;27422;52.444;13.300;2023-06-19T11:51:41;8.18;;;6.40;;
41739;SDS011;27422;52.444;13.300;2023-06-19T11:54:08;8.35;;;7.00;;
41739;SDS011;27422;52.444;13.300;2023-06-19T11:56:38;7.57;;;6.78;;
41739;SDS011;27422;52.444;13.300;2023-06-19T11:59:04;9.32;;;7.03;;
41739;SDS011;27422;52.444;13.300;2023-06-19T12:01:31;7.75;;;6.57;;
41739;SDS011;27422;52.444;13.300;2023-06-19T12:03:56;7.43;;;6.40;;
41739;SDS011;27422;52.444;13.300;2023-06-19T12:06:22;8.57;;;7.68;;
41739;SDS011;27422;52.444;13.300;2023-06-19T12:08:48;7.55;;;6.68;;
41739;SDS011;27422;52.444;13.300;2023-06-19T12:11:16;7.70;;;6.70;;
41739;SDS011;27422;52.444;13.300;2023-06-19T12:13:41;9.13;;;6.80;;
41739;SDS011;27422;52.444;13.300;2023-06-19T12:16:08;7.65;;;6.47;;
41739;SDS011;27422;52.444;13.300;2023-06-19T12:18:34;8.68;;;6.30;;
41739;SDS011;27422;52.444;13.300;2023-06-19T12:21:07;7.95;;;5.97;;
41739;SDS011;27422;52.444;13.300;2023-06-19T12:23:36;7.47;;;6.57;;
41739;SDS011;27422;52.444;13.300;2023-06-19T12:26:01;10.73;;;6.10;;
41739;SDS011;27422;52.444;13.300;2023-06-19T12:28:27;7.30;;;6.00;;
41739;SDS011;27422;52.444;13.300;2023-06-19T12:30:55;6.97;;;5.97;;
41739;SDS011;27422;52.444;13.300;2023-06-19T12:33:21;6.57;;;5.18;;
41739;SDS011;27422;52.444;13.300;2023-06-19T12:35:47;6.30;;;5.50;;
41739;SDS011;27422;52.444;13.300;2023-06-19T12:38:12;6.65;;;5.50;;
41739;SDS011;27422;52.444;13.300;2023-06-19T12:40:38;6.88;;;5.80;;
41739;SDS011;27422;52.444;13.300;2023-06-19T12:43:07;6.80;;;6.05;;
41739;SDS011;27422;52.444;13.300;2023-06-19T12:45:32;7.85;;;6.55;;
41739;SDS011;27422;52.444;13.300;2023-06-19T12:47:58;7.43;;;6.47;;
41739;SDS011;27422;52.444;13.300;2023-06-19T12:50:23;8.60;;;6.68;;
41739;SDS011;27422;52.444;13.300;2023-06-19T12:52:50;7.25;;;6.47;;
41739;SDS011;27422;52.444;13.300;2023-06-19T12:55:15;7.28;;;6.43;;
41739;SDS011;27422;52.444;13.300;2023-06-19T12:57:43;7.90;;;6.65;;
41739;SDS011;27422;52.444;13.300;2023-06-19T13:00:10;8.45;;;7.03;;
41739;SDS011;27422;52.444;13.300;2023-06-19T13:02:37;7.35;;;6.18;;
41739;SDS011;27422;52.444;13.300;2023-06-19T13:05:10;8.38;;;6.50;;
41739;SDS011;27422;52.444;13.300;2023-06-19T13:07:36;7.50;;;6.70;;
41739;SDS011;27422;52.444;13.300;2023-06-19T13:10:02;7.65;;;6.85;;
41739;SDS011;27422;52.444;13.300;2023-06-19T13:12:31;8.50;;;7.15;;
41739;SDS011;27422;52.444;13.300;2023-06-19T13:14:59;9.02;;;7.07;;
41739;SDS011;27422;52.444;13.300;2023-06-19T13:17:25;7.60;;;6.80;;
41739;SDS011;27422;52.444;13.300;2023-06-19T13:19:50;8.52;;;6.80;;
41739;SDS011;27422;52.444;13.300;2023-06-19T13:22:18;7.72;;;6.93;;
41739;SDS011;27422;52.444;13.300;2023-06-19T13:24:43;7.63;;;6.55;;
41739;SDS011;27422;52.444;13.300;2023-06-19T13:27:09;8.55;;;7.60;;
41739;SDS011;27422;52.444;13.300;2023-06-19T13:29:34;8.23;;;7.38;;
41739;SDS011;27422;52.444;13.300;2023-06-19T13:32:00;7.85;;;6.70;;
41739;SDS011;27422;52.444;13.300;2023-06-19T13:34:26;7.73;;;6.93;;
41739;SDS011;27422;52.444;13.300;2023-06-19T13:36:52;8.05;;;6.53;;
41739;SDS011;27422;52.444;13.300;2023-06-19T13:39:19;7.10;;;6.40;;
41739;SDS011;27422;52.444;13.300;2023-06-19T13:41:45;7.60;;;6.22;;
41739;SDS011;27422;52.444;13.300;2023-06-19T13:44:11;7.57;;;6.65;;
41739;SDS011;27422;52.444;13.300;2023-06-19T13:46:37;6.97;;;6.28;;
41739;SDS011;27422;52.444;13.300;2023-06-19T13:49:05;7.18;;;6.28;;
41739;SDS011;27422;52.444;13.300;2023-06-19T13:51:30;7.78;;;6.97;;
41739;SDS011;27422;52.444;13.300;2023-06-19T13:53:59;9.90;;;7.03;;
41739;SDS011;27422;52.444;13.300;2023-06-19T13:56:24;7.88;;;6.70;;
41739;SDS011;27422;52.444;13.300;2023-06-19T13:58:50;8.25;;;6.50;;
41739;SDS011;27422;52.444;13.300;2023-06-19T14:01:15;7.72;;;6.60;;
41739;SDS011;27422;52.444;13.300;2023-06-19T14:03:46;8.38;;;6.45;;
41739;SDS011;27422;52.444;13.300;2023-06-19T14:06:12;8.13;;;6.82;;
41739;SDS011;27422;52.444;13.300;2023-06-19T14:08:41;8.82;;;6.45;;
41739;SDS011;27422;52.444;13.300;2023-06-19T14:11:06;8.55;;;7.10;;
41739;SDS011;27422;52.444;13.300;2023-06-19T14:13:32;8.25;;;6.97;;
41739;SDS011;27422;52.444;13.300;2023-06-19T14:15:57;8.27;;;6.82;;
41739;SDS011;27422;52.444;13.300;2023-06-19T14:18:23;8.20;;;7.30;;
41739;SDS011;27422;52.444;13.300;2023-06-19T14:20:54;7.30;;;6.53;;
41739;SDS011;27422;52.444;13.300;2023-06-19T14:23:19;7.20;;;6.47;;
41739;SDS011;27422;52.444;13.300;2023-06-19T14:25:45;7.38;;;6.63;;
41739;SDS011;27422;52.444;13.300;2023-06-19T14:28:10;8.02;;;6.90;;
41739;SDS011;27422;52.444;13.300;2023-06-19T14:30:36;7.10;;;6.35;;
41739;SDS011;27422;52.444;13.300;2023-06-19T14:33:01;7.90;;;7.10;;
41739;SDS011;27422;52.444;13.300;2023-06-19T14:35:27;8.25;;;7.10;;
41739;SDS011;27422;52.444;13.300;2023-06-19T14:37:52;8.82;;;6.82;;
41739;SDS011;27422;52.444;13.300;2023-06-19T14:40:18;7.97;;;7.15;;
41739;SDS011;27422;52.444;13.300;2023-06-19T14:42:43;8.07;;;6.90;;
41739;SDS011;27422;52.444;13.300;2023-06-19T14:45:09;9.20;;;7.10;;
41739;SDS011;27422;52.444;13.300;2023-06-19T14:47:34;7.53;;;6.53;;